sensor_id;sensor_type;location;lat;lon;timestamp;pressure;altitude;pressure_sealevel;temperature;humidity
50226;BME280;36113;50.742;6.432;2023-05-29T00:01:05;99190.88;;;13.62;62.42
50226;BME280;36113;50.742;6.432;2023-05-29T00:03:33;99195.53;;;13.62;62.46
50226;BME280;36113;50.742;6.432;2023-05-29T00:05:58;99194.16;;;13.64;62.41
50226;BME280;36113;50.742;6.432;2023-05-29T00:08:26;99206.97;;;13.69;62.63
50226;BME280;36113;50.742;6.432;2023-05-29T00:10:51;99205.63;;;13.61;62.73
50226;BME280;36113;50.742;6.432;2023-05-29T00:13:16;99207.50;;;13.71;62.34
50226;BME280;36113;50.742;6.432;2023-05-29T00:15:42;99203.19;;;13.60;62.45
50226;BME280;36113;50.742;6.432;2023-05-29T00:18:07;99205.38;;;13.58;62.52
50226;BME280;36113;50.742;6.432;2023-05-29T00:20:32;99166.47;;;13.32;62.58
50226;BME280;36113;50.742;6.432;2023-05-29T00:22:59;99209.78;;;13.54;62.73
50226;BME280;36113;50.742;6.432;2023-05-29T00:25:24;99205.72;;;13.46;62.58
50226;BME280;36113;50.742;6.432;2023-05-29T00:27:49;99207.16;;;13.33;63.23
50226;BME280;36113;50.742;6.432;2023-05-29T00:30:15;99212.59;;;13.38;63.31
50226;BME280;36113;50.742;6.432;2023-05-29T00:32:40;99163.31;;;13.04;63.29
50226;BME280;36113;50.742;6.432;2023-05-29T00:35:06;99198.16;;;13.22;63.60
50226;BME280;36113;50.742;6.432;2023-05-29T00:37:31;99206.34;;;13.22;63.37
50226;BME280;36113;50.742;6.432;2023-05-29T00:39:57;99167.91;;;13.03;63.24
50226;BME280;36113;50.742;6.432;2023-05-29T00:42:22;99206.88;;;13.30;63.01
50226;BME280;36113;50.742;6.432;2023-05-29T00:44:47;99197.94;;;13.09;63.84
50226;BME280;36113;50.742;6.432;2023-05-29T00:47:13;99191.41;;;13.04;63.52
50226;BME280;36113;50.742;6.432;2023-05-29T00:49:38;99166.88;;;12.89;63.55
50226;BME280;36113;50.742;6.432;2023-05-29T00:52:05;99186.00;;;12.84;64.42
50226;BME280;36113;50.742;6.432;2023-05-29T00:54:33;99157.41;;;12.71;63.94
50226;BME280;36113;50.742;6.432;2023-05-29T00:56:59;99188.97;;;12.88;64.19
50226;BME280;36113;50.742;6.432;2023-05-29T00:59:29;99208.31;;;13.01;63.88
50226;BME280;36113;50.742;6.432;2023-05-29T01:01:55;99168.56;;;12.70;64.01
50226;BME280;36113;50.742;6.432;2023-05-29T01:04:23;99201.00;;;12.87;64.32
50226;BME280;36113;50.742;6.432;2023-05-29T01:06:49;99209.47;;;12.75;64.69
50226;BME280;36113;50.742;6.432;2023-05-29T01:09:14;99150.38;;;12.24;65.50
50226;BME280;36113;50.742;6.432;2023-05-29T01:15:04;99190.16;;;12.51;65.00
50226;BME280;36113;50.742;6.432;2023-05-29T01:23:27;99219.06;;;12.41;65.91
50226;BME280;36113;50.742;6.432;2023-05-29T01:28:35;99224.50;;;12.26;66.21
50226;BME280;36113;50.742;6.432;2023-05-29T01:31:03;99197.00;;;12.07;65.90
50226;BME280;36113;50.742;6.432;2023-05-29T01:33:29;99205.72;;;12.09;65.85
50226;BME280;36113;50.742;6.432;2023-05-29T01:35:54;99172.19;;;11.93;65.46
50226;BME280;36113;50.742;6.432;2023-05-29T01:38:19;99176.25;;;11.80;66.07
50226;BME280;36113;50.742;6.432;2023-05-29T01:40:45;99223.16;;;11.98;65.73
50226;BME280;36113;50.742;6.432;2023-05-29T01:43:12;99216.84;;;11.97;65.70
50226;BME280;36113;50.742;6.432;2023-05-29T01:45:38;99215.78;;;11.98;65.94
50226;BME280;36113;50.742;6.432;2023-05-29T01:48:04;99209.72;;;11.86;66.19
50226;BME280;36113;50.742;6.432;2023-05-29T01:50:30;99228.59;;;12.03;65.63
50226;BME280;36113;50.742;6.432;2023-05-29T01:52:56;99191.44;;;11.66;65.64
50226;BME280;36113;50.742;6.432;2023-05-29T01:55:21;99233.44;;;11.86;65.98
50226;BME280;36113;50.742;6.432;2023-05-29T01:57:47;99226.66;;;11.88;65.69
50226;BME280;36113;50.742;6.432;2023-05-29T02:00:16;99232.66;;;11.90;65.43
50226;BME280;36113;50.742;6.432;2023-05-29T02:02:41;99234.56;;;11.90;65.31
50226;BME280;36113;50.742;6.432;2023-05-29T02:05:08;99197.16;;;11.54;65.78
50226;BME280;36113;50.742;6.432;2023-05-29T02:07:34;99239.41;;;11.72;66.45
50226;BME280;36113;50.742;6.432;2023-05-29T02:10:02;99217.56;;;11.52;66.69
50226;BME280;36113;50.742;6.432;2023-05-29T02:12:27;99224.63;;;11.48;67.10
50226;BME280;36113;50.742;6.432;2023-05-29T02:14:53;99247.72;;;11.40;67.37
50226;BME280;36113;50.742;6.432;2023-05-29T02:17:19;99201.38;;;11.14;66.99
50226;BME280;36113;50.742;6.432;2023-05-29T02:19:44;99239.03;;;11.38;67.47
50226;BME280;36113;50.742;6.432;2023-05-29T02:22:09;99185.00;;;11.04;67.11
50226;BME280;36113;50.742;6.432;2023-05-29T02:24:35;99237.88;;;11.29;67.19
50226;BME280;36113;50.742;6.432;2023-05-29T02:27:00;99252.03;;;11.31;67.52
50226;BME280;36113;50.742;6.432;2023-05-29T02:29:26;99264.59;;;11.32;67.36
50226;BME280;36113;50.742;6.432;2023-05-29T02:31:51;99245.78;;;11.25;67.11
50226;BME280;36113;50.742;6.432;2023-05-29T02:34:16;99257.16;;;11.17;67.43
50226;BME280;36113;50.742;6.432;2023-05-29T02:36:41;99222.38;;;10.76;68.18
50226;BME280;36113;50.742;6.432;2023-05-29T02:39:07;99244.81;;;10.94;67.61
50226;BME280;36113;50.742;6.432;2023-05-29T02:41:32;99226.41;;;10.69;67.96
50226;BME280;36113;50.742;6.432;2023-05-29T02:43:57;99262.97;;;10.88;68.21
50226;BME280;36113;50.742;6.432;2023-05-29T02:46:23;99253.41;;;10.81;68.04
50226;BME280;36113;50.742;6.432;2023-05-29T02:48:48;99201.25;;;10.46;68.00
50226;BME280;36113;50.742;6.432;2023-05-29T02:51:13;99256.69;;;10.83;67.91
50226;BME280;36113;50.742;6.432;2023-05-29T02:53:39;99232.84;;;10.57;68.06
50226;BME280;36113;50.742;6.432;2023-05-29T02:56:06;99268.09;;;10.85;68.14
50226;BME280;36113;50.742;6.432;2023-05-29T02:58:33;99232.03;;;10.52;68.22
50226;BME280;36113;50.742;6.432;2023-05-29T03:01:00;99278.72;;;10.81;68.09
50226;BME280;36113;50.742;6.432;2023-05-29T03:03:27;99272.06;;;10.67;68.76
50226;BME280;36113;50.742;6.432;2023-05-29T03:05:52;99231.91;;;10.37;68.68
50226;BME280;36113;50.742;6.432;2023-05-29T03:08:18;99233.44;;;10.27;69.36
50226;BME280;36113;50.742;6.432;2023-05-29T03:10:43;99263.50;;;10.48;69.32
50226;BME280;36113;50.742;6.432;2023-05-29T03:13:10;99271.13;;;10.51;69.23
50226;BME280;36113;50.742;6.432;2023-05-29T03:15:35;99268.38;;;10.46;69.58
50226;BME280;36113;50.742;6.432;2023-05-29T03:18:00;99278.94;;;10.42;69.97
50226;BME280;36113;50.742;6.432;2023-05-29T03:20:26;99272.38;;;10.38;70.17
50226;BME280;36113;50.742;6.432;2023-05-29T03:22:51;99276.91;;;10.27;70.66
50226;BME280;36113;50.742;6.432;2023-05-29T03:25:16;99264.28;;;10.16;70.89
50226;BME280;36113;50.742;6.432;2023-05-29T03:27:42;99275.69;;;10.18;70.89
50226;BME280;36113;50.742;6.432;2023-05-29T03:30:08;99292.25;;;10.39;70.46
50226;BME280;36113;50.742;6.432;2023-05-29T03:32:34;99278.75;;;10.22;71.33
50226;BME280;36113;50.742;6.432;2023-05-29T03:35:00;99294.63;;;10.30;70.91
50226;BME280;36113;50.742;6.432;2023-05-29T03:37:25;99243.38;;;9.89;71.29
50226;BME280;36113;50.742;6.432;2023-05-29T03:39:50;99248.81;;;9.89;71.50
50226;BME280;36113;50.742;6.432;2023-05-29T03:42:16;99231.09;;;9.82;71.87
50226;BME280;36113;50.742;6.432;2023-05-29T03:44:42;99293.31;;;10.10;72.16
50226;BME280;36113;50.742;6.432;2023-05-29T03:47:07;99247.38;;;9.82;72.29
50226;BME280;36113;50.742;6.432;2023-05-29T03:49:34;99293.63;;;10.14;72.51
50226;BME280;36113;50.742;6.432;2023-05-29T03:51:59;99262.72;;;9.93;72.03
50226;BME280;36113;50.742;6.432;2023-05-29T03:54:25;99295.97;;;10.05;72.50
50226;BME280;36113;50.742;6.432;2023-05-29T03:56:50;99291.66;;;10.09;72.85
50226;BME280;36113;50.742;6.432;2023-05-29T03:59:16;99300.69;;;10.15;72.28
50226;BME280;36113;50.742;6.432;2023-05-29T04:01:41;99285.69;;;10.07;72.39
50226;BME280;36113;50.742;6.432;2023-05-29T04:04:06;99252.78;;;9.77;72.63
50226;BME280;36113;50.742;6.432;2023-05-29T04:06:31;99307.63;;;10.01;72.90
50226;BME280;36113;50.742;6.432;2023-05-29T04:08:57;99308.72;;;10.05;72.84
50226;BME280;36113;50.742;6.432;2023-05-29T04:11:22;99298.97;;;9.82;73.39
50226;BME280;36113;50.742;6.432;2023-05-29T04:13:48;99316.31;;;9.81;74.04
50226;BME280;36113;50.742;6.432;2023-05-29T04:16:14;99257.56;;;9.47;73.81
50226;BME280;36113;50.742;6.432;2023-05-29T04:18:40;99279.75;;;9.61;73.91
50226;BME280;36113;50.742;6.432;2023-05-29T04:21:05;99121.44;;;8.40;74.35
50226;BME280;36113;50.742;6.432;2023-05-29T04:23:30;99258.16;;;9.27;74.92
50226;BME280;36113;50.742;6.432;2023-05-29T04:25:56;99282.75;;;9.43;74.84
50226;BME280;36113;50.742;6.432;2023-05-29T04:28:21;99320.31;;;9.73;74.51
50226;BME280;36113;50.742;6.432;2023-05-29T04:30:47;99304.09;;;9.78;74.13
50226;BME280;36113;50.742;6.432;2023-05-29T04:33:12;99337.09;;;10.14;73.34
50226;BME280;36113;50.742;6.432;2023-05-29T04:35:39;99325.16;;;10.20;72.86
50226;BME280;36113;50.742;6.432;2023-05-29T04:38:08;99287.16;;;9.93;72.77
50226;BME280;36113;50.742;6.432;2023-05-29T04:40:34;99332.38;;;10.31;72.77
50226;BME280;36113;50.742;6.432;2023-05-29T04:43:01;99278.84;;;10.05;72.55
50226;BME280;36113;50.742;6.432;2023-05-29T04:45:27;99245.63;;;9.98;72.17
50226;BME280;36113;50.742;6.432;2023-05-29T04:47:53;99294.84;;;10.28;72.22
50226;BME280;36113;50.742;6.432;2023-05-29T04:50:20;99290.84;;;10.36;71.68
50226;BME280;36113;50.742;6.432;2023-05-29T04:52:45;99326.16;;;10.63;71.41
50226;BME280;36113;50.742;6.432;2023-05-29T04:55:11;99327.31;;;10.72;71.70
50226;BME280;36113;50.742;6.432;2023-05-29T04:57:36;99327.91;;;10.80;71.42
50226;BME280;36113;50.742;6.432;2023-05-29T05:00:03;99307.03;;;10.85;70.26
50226;BME280;36113;50.742;6.432;2023-05-29T05:02:32;99319.28;;;10.88;70.64
50226;BME280;36113;50.742;6.432;2023-05-29T05:04:58;99306.69;;;10.76;70.35
50226;BME280;36113;50.742;6.432;2023-05-29T05:07:24;99341.00;;;10.83;71.03
50226;BME280;36113;50.742;6.432;2023-05-29T05:09:49;99350.09;;;10.66;70.87
50226;BME280;36113;50.742;6.432;2023-05-29T05:12:15;99340.78;;;10.57;71.02
50226;BME280;36113;50.742;6.432;2023-05-29T05:14:40;99340.59;;;10.37;71.76
50226;BME280;36113;50.742;6.432;2023-05-29T05:17:06;99352.75;;;10.29;72.44
50226;BME280;36113;50.742;6.432;2023-05-29T05:19:31;99320.31;;;9.95;73.25
50226;BME280;36113;50.742;6.432;2023-05-29T05:21:56;99343.00;;;10.33;72.20
50226;BME280;36113;50.742;6.432;2023-05-29T05:24:22;99352.28;;;10.37;71.71
50226;BME280;36113;50.742;6.432;2023-05-29T05:26:47;99309.03;;;9.81;72.13
50226;BME280;36113;50.742;6.432;2023-05-29T05:29:13;99352.66;;;9.97;73.18
50226;BME280;36113;50.742;6.432;2023-05-29T05:31:38;99324.25;;;10.09;72.45
50226;BME280;36113;50.742;6.432;2023-05-29T05:34:04;99366.84;;;10.53;71.01
50226;BME280;36113;50.742;6.432;2023-05-29T05:36:29;99371.31;;;10.37;71.40
50226;BME280;36113;50.742;6.432;2023-05-29T05:38:54;99323.59;;;10.24;71.08
50226;BME280;36113;50.742;6.432;2023-05-29T05:41:19;99360.69;;;10.63;70.84
50226;BME280;36113;50.742;6.432;2023-05-29T05:43:46;99370.53;;;11.06;69.93
50226;BME280;36113;50.742;6.432;2023-05-29T05:46:11;99364.78;;;10.65;70.16
50226;BME280;36113;50.742;6.432;2023-05-29T05:48:37;99370.56;;;10.47;71.31
50226;BME280;36113;50.742;6.432;2023-05-29T05:51:03;99366.63;;;10.60;70.77
50226;BME280;36113;50.742;6.432;2023-05-29T05:53:28;99314.47;;;10.63;69.28
50226;BME280;36113;50.742;6.432;2023-05-29T05:55:53;99358.28;;;10.71;69.35
50226;BME280;36113;50.742;6.432;2023-05-29T05:58:19;99377.00;;;10.95;69.82
50226;BME280;36113;50.742;6.432;2023-05-29T06:00:44;99363.25;;;11.12;68.99
50226;BME280;36113;50.742;6.432;2023-05-29T06:03:10;99378.72;;;10.74;69.72
50226;BME280;36113;50.742;6.432;2023-05-29T06:05:37;99357.00;;;10.47;70.74
50226;BME280;36113;50.742;6.432;2023-05-29T06:08:04;99386.06;;;11.06;69.93
50226;BME280;36113;50.742;6.432;2023-05-29T06:10:29;99384.34;;;10.94;69.12
50226;BME280;36113;50.742;6.432;2023-05-29T06:12:55;99383.69;;;10.50;71.35
50226;BME280;36113;50.742;6.432;2023-05-29T06:15:20;99390.84;;;10.61;70.39
50226;BME280;36113;50.742;6.432;2023-05-29T06:17:45;99395.72;;;10.59;71.00
50226;BME280;36113;50.742;6.432;2023-05-29T06:20:11;99402.00;;;10.92;69.71
50226;BME280;36113;50.742;6.432;2023-05-29T06:22:38;99328.69;;;10.43;69.40
50226;BME280;36113;50.742;6.432;2023-05-29T06:25:04;99395.59;;;11.08;69.42
50226;BME280;36113;50.742;6.432;2023-05-29T06:27:29;99398.06;;;11.52;68.72
50226;BME280;36113;50.742;6.432;2023-05-29T06:29:55;99382.75;;;11.36;67.07
50226;BME280;36113;50.742;6.432;2023-05-29T06:32:20;99351.22;;;11.45;67.02
50226;BME280;36113;50.742;6.432;2023-05-29T06:34:47;99393.97;;;11.97;66.16
50226;BME280;36113;50.742;6.432;2023-05-29T06:37:12;99389.03;;;11.89;66.12
50226;BME280;36113;50.742;6.432;2023-05-29T06:39:37;99384.41;;;11.90;66.09
50226;BME280;36113;50.742;6.432;2023-05-29T06:42:04;99403.16;;;11.86;65.81
50226;BME280;36113;50.742;6.432;2023-05-29T06:44:29;99376.59;;;11.56;67.17
50226;BME280;36113;50.742;6.432;2023-05-29T06:46:55;99391.44;;;11.86;66.50
50226;BME280;36113;50.742;6.432;2023-05-29T06:49:20;99405.50;;;11.67;65.94
50226;BME280;36113;50.742;6.432;2023-05-29T06:51:45;99383.50;;;11.79;66.09
50226;BME280;36113;50.742;6.432;2023-05-29T06:54:11;99396.72;;;12.03;65.87
50226;BME280;36113;50.742;6.432;2023-05-29T06:56:36;99380.94;;;12.05;65.72
50226;BME280;36113;50.742;6.432;2023-05-29T06:59:01;99396.78;;;12.28;64.64
50226;BME280;36113;50.742;6.432;2023-05-29T07:01:26;99391.69;;;12.47;63.82
50226;BME280;36113;50.742;6.432;2023-05-29T07:03:53;99398.25;;;12.77;62.92
50226;BME280;36113;50.742;6.432;2023-05-29T07:06:18;99397.69;;;12.59;63.72
50226;BME280;36113;50.742;6.432;2023-05-29T07:08:43;99384.91;;;12.75;62.77
50226;BME280;36113;50.742;6.432;2023-05-29T07:11:09;99284.47;;;12.16;62.37
50226;BME280;36113;50.742;6.432;2023-05-29T07:13:34;99391.97;;;13.22;61.96
50226;BME280;36113;50.742;6.432;2023-05-29T07:16:00;99350.50;;;13.31;61.08
50226;BME280;36113;50.742;6.432;2023-05-29T07:18:26;99351.56;;;13.35;60.54
50226;BME280;36113;50.742;6.432;2023-05-29T07:20:51;99400.16;;;12.81;63.30
50226;BME280;36113;50.742;6.432;2023-05-29T07:23:16;99316.25;;;11.85;63.97
50226;BME280;36113;50.742;6.432;2023-05-29T07:25:41;99408.75;;;12.22;64.79
50226;BME280;36113;50.742;6.432;2023-05-29T07:28:07;99348.72;;;11.91;65.94
50226;BME280;36113;50.742;6.432;2023-05-29T07:30:32;99363.47;;;12.00;64.81
50226;BME280;36113;50.742;6.432;2023-05-29T07:32:58;99393.28;;;12.43;64.66
50226;BME280;36113;50.742;6.432;2023-05-29T07:35:23;99416.00;;;12.74;63.65
50226;BME280;36113;50.742;6.432;2023-05-29T07:37:48;99407.25;;;12.62;63.80
50226;BME280;36113;50.742;6.432;2023-05-29T07:40:15;99405.81;;;12.44;63.67
50226;BME280;36113;50.742;6.432;2023-05-29T07:42:40;99401.44;;;12.23;65.90
50226;BME280;36113;50.742;6.432;2023-05-29T07:45:06;99401.22;;;12.55;65.01
50226;BME280;36113;50.742;6.432;2023-05-29T07:47:32;99405.63;;;12.81;64.93
50226;BME280;36113;50.742;6.432;2023-05-29T07:49:57;99403.44;;;12.83;64.50
50226;BME280;36113;50.742;6.432;2023-05-29T07:52:22;99394.97;;;12.75;64.61
50226;BME280;36113;50.742;6.432;2023-05-29T07:54:48;99377.78;;;12.95;63.83
50226;BME280;36113;50.742;6.432;2023-05-29T07:57:13;99399.09;;;13.13;62.62
50226;BME280;36113;50.742;6.432;2023-05-29T07:59:41;99353.50;;;12.88;63.47
50226;BME280;36113;50.742;6.432;2023-05-29T08:02:07;99354.03;;;12.44;63.92
50226;BME280;36113;50.742;6.432;2023-05-29T08:04:33;99382.47;;;12.84;64.81
50226;BME280;36113;50.742;6.432;2023-05-29T08:07:00;99393.06;;;13.37;63.45
50226;BME280;36113;50.742;6.432;2023-05-29T08:09:26;99400.94;;;13.69;61.83
50226;BME280;36113;50.742;6.432;2023-05-29T08:11:51;99368.50;;;13.47;62.29
50226;BME280;36113;50.742;6.432;2023-05-29T08:14:17;99402.72;;;14.04;60.65
50226;BME280;36113;50.742;6.432;2023-05-29T08:16:42;99372.06;;;13.42;61.51
50226;BME280;36113;50.742;6.432;2023-05-29T08:19:08;99404.81;;;13.53;62.86
50226;BME280;36113;50.742;6.432;2023-05-29T08:21:33;99379.34;;;13.73;61.63
50226;BME280;36113;50.742;6.432;2023-05-29T08:23:59;99339.47;;;13.61;62.61
50226;BME280;36113;50.742;6.432;2023-05-29T08:26:26;99366.44;;;13.83;60.56
50226;BME280;36113;50.742;6.432;2023-05-29T08:28:51;99382.66;;;13.54;62.21
50226;BME280;36113;50.742;6.432;2023-05-29T08:31:16;99370.56;;;13.86;61.38
50226;BME280;36113;50.742;6.432;2023-05-29T08:33:42;99400.91;;;14.44;60.88
50226;BME280;36113;50.742;6.432;2023-05-29T08:36:08;99419.03;;;14.25;59.85
50226;BME280;36113;50.742;6.432;2023-05-29T08:38:34;99409.13;;;14.39;60.64
50226;BME280;36113;50.742;6.432;2023-05-29T08:40:59;99419.66;;;14.12;61.88
50226;BME280;36113;50.742;6.432;2023-05-29T08:43:27;99414.63;;;14.34;62.26
50226;BME280;36113;50.742;6.432;2023-05-29T08:45:54;99401.75;;;14.84;59.92
50226;BME280;36113;50.742;6.432;2023-05-29T08:48:24;99413.22;;;15.21;58.78
50226;BME280;36113;50.742;6.432;2023-05-29T08:50:52;99413.66;;;15.62;58.66
50226;BME280;36113;50.742;6.432;2023-05-29T08:53:18;99414.97;;;15.41;58.55
50226;BME280;36113;50.742;6.432;2023-05-29T08:55:47;99406.19;;;15.73;58.49
50226;BME280;36113;50.742;6.432;2023-05-29T08:58:16;99411.19;;;16.14;57.03
50226;BME280;36113;50.742;6.432;2023-05-29T09:00:41;99408.03;;;15.78;56.57
50226;BME280;36113;50.742;6.432;2023-05-29T09:03:07;99414.28;;;15.54;58.28
50226;BME280;36113;50.742;6.432;2023-05-29T09:05:33;99389.50;;;15.40;58.02
50226;BME280;36113;50.742;6.432;2023-05-29T09:07:58;99431.78;;;15.29;57.51
50226;BME280;36113;50.742;6.432;2023-05-29T09:10:24;99383.00;;;15.02;58.83
50226;BME280;36113;50.742;6.432;2023-05-29T09:12:51;99423.84;;;15.27;59.18
50226;BME280;36113;50.742;6.432;2023-05-29T09:15:18;99404.63;;;15.32;58.11
50226;BME280;36113;50.742;6.432;2023-05-29T09:17:44;99430.03;;;15.72;57.58
50226;BME280;36113;50.742;6.432;2023-05-29T09:20:17;99397.06;;;16.02;56.38
50226;BME280;36113;50.742;6.432;2023-05-29T09:22:53;99336.88;;;15.43;55.57
50226;BME280;36113;50.742;6.432;2023-05-29T09:25:22;99281.50;;;14.64;56.82
50226;BME280;36113;50.742;6.432;2023-05-29T09:27:50;99425.69;;;15.08;58.48
50226;BME280;36113;50.742;6.432;2023-05-29T09:30:38;99440.00;;;15.58;58.10
50226;BME280;36113;50.742;6.432;2023-05-29T09:33:05;99434.56;;;15.53;57.92
50226;BME280;36113;50.742;6.432;2023-05-29T09:35:33;99399.69;;;15.35;57.56
50226;BME280;36113;50.742;6.432;2023-05-29T09:37:58;99419.47;;;15.85;58.24
50226;BME280;36113;50.742;6.432;2023-05-29T09:40:24;99437.75;;;15.36;57.82
50226;BME280;36113;50.742;6.432;2023-05-29T09:42:49;99428.97;;;15.39;57.73
50226;BME280;36113;50.742;6.432;2023-05-29T09:45:17;99415.88;;;15.31;58.63
50226;BME280;36113;50.742;6.432;2023-05-29T09:47:43;99437.19;;;15.05;57.91
50226;BME280;36113;50.742;6.432;2023-05-29T09:50:18;99432.97;;;14.83;58.90
50226;BME280;36113;50.742;6.432;2023-05-29T09:52:45;99427.03;;;15.05;58.11
50226;BME280;36113;50.742;6.432;2023-05-29T09:55:13;99438.19;;;15.14;59.16
50226;BME280;36113;50.742;6.432;2023-05-29T09:57:45;99427.94;;;15.59;56.80
50226;BME280;36113;50.742;6.432;2023-05-29T10:00:12;99394.22;;;15.35;57.96
50226;BME280;36113;50.742;6.432;2023-05-29T10:02:38;99434.97;;;15.70;57.12
50226;BME280;36113;50.742;6.432;2023-05-29T10:05:06;99433.00;;;16.24;55.84
50226;BME280;36113;50.742;6.432;2023-05-29T10:07:35;99437.75;;;15.95;55.92
50226;BME280;36113;50.742;6.432;2023-05-29T10:10:03;99423.53;;;16.11;55.37
50226;BME280;36113;50.742;6.432;2023-05-29T10:12:31;99425.34;;;16.21;54.63
50226;BME280;36113;50.742;6.432;2023-05-29T10:14:59;99440.56;;;16.32;54.01
50226;BME280;36113;50.742;6.432;2023-05-29T10:17:35;99398.22;;;15.71;55.76
50226;BME280;36113;50.742;6.432;2023-05-29T10:20:05;99412.97;;;15.81;56.54
50226;BME280;36113;50.742;6.432;2023-05-29T10:22:32;99433.41;;;16.55;54.94
50226;BME280;36113;50.742;6.432;2023-05-29T10:24:58;99422.81;;;16.87;53.31
50226;BME280;36113;50.742;6.432;2023-05-29T10:27:25;99439.69;;;17.32;52.73
50226;BME280;36113;50.742;6.432;2023-05-29T10:29:59;99390.59;;;16.92;52.62
50226;BME280;36113;50.742;6.432;2023-05-29T10:32:30;99392.97;;;17.32;52.69
50226;BME280;36113;50.742;6.432;2023-05-29T10:35:12;99451.78;;;17.77;51.38
50226;BME280;36113;50.742;6.432;2023-05-29T10:37:44;99451.03;;;16.92;53.43
50226;BME280;36113;50.742;6.432;2023-05-29T10:40:11;99394.84;;;16.66;53.73
50226;BME280;36113;50.742;6.432;2023-05-29T10:45:06;99415.38;;;16.68;53.70
50226;BME280;36113;50.742;6.432;2023-05-29T10:47:31;99424.50;;;16.64;53.87
50226;BME280;36113;50.742;6.432;2023-05-29T10:50:01;99429.16;;;16.01;55.93
50226;BME280;36113;50.742;6.432;2023-05-29T10:52:33;99403.69;;;16.01;55.87
50226;BME280;36113;50.742;6.432;2023-05-29T10:54:59;99396.91;;;16.55;54.16
50226;BME280;36113;50.742;6.432;2023-05-29T10:57:25;99449.72;;;17.23;54.43
50226;BME280;36113;50.742;6.432;2023-05-29T11:00:02;99397.88;;;16.45;52.79
50226;BME280;36113;50.742;6.432;2023-05-29T11:02:31;99403.69;;;16.63;53.28
50226;BME280;36113;50.742;6.432;2023-05-29T11:05:26;99429.84;;;16.74;54.15
50226;BME280;36113;50.742;6.432;2023-05-29T11:08:01;99392.75;;;16.58;54.29
50226;BME280;36113;50.742;6.432;2023-05-29T11:13:57;99435.63;;;16.53;54.43
50226;BME280;36113;50.742;6.432;2023-05-29T11:19:13;99438.66;;;17.74;52.11
50226;BME280;36113;50.742;6.432;2023-05-29T11:24:16;99388.53;;;18.33;50.74
50226;BME280;36113;50.742;6.432;2023-05-29T11:26:46;99389.44;;;18.28;49.19
50226;BME280;36113;50.742;6.432;2023-05-29T11:29:12;99395.69;;;18.20;50.35
50226;BME280;36113;50.742;6.432;2023-05-29T11:31:40;99433.19;;;17.42;52.02
50226;BME280;36113;50.742;6.432;2023-05-29T11:34:09;99347.50;;;17.07;52.23
50226;BME280;36113;50.742;6.432;2023-05-29T11:36:36;99369.03;;;17.32;52.25
50226;BME280;36113;50.742;6.432;2023-05-29T11:39:02;99429.75;;;17.17;52.95
50226;BME280;36113;50.742;6.432;2023-05-29T11:41:28;99416.31;;;16.83;54.87
50226;BME280;36113;50.742;6.432;2023-05-29T11:46:23;99381.34;;;16.50;53.91
50226;BME280;36113;50.742;6.432;2023-05-29T11:48:48;99387.63;;;17.08;53.88
50226;BME280;36113;50.742;6.432;2023-05-29T11:51:16;99408.44;;;17.88;51.58
50226;BME280;36113;50.742;6.432;2023-05-29T11:53:42;99363.81;;;18.05;50.17
50226;BME280;36113;50.742;6.432;2023-05-29T11:56:09;99410.50;;;18.60;49.23
50226;BME280;36113;50.742;6.432;2023-05-29T11:58:39;99402.56;;;18.95;49.70
50226;BME280;36113;50.742;6.432;2023-05-29T12:01:06;99407.78;;;19.28;48.11
50226;BME280;36113;50.742;6.432;2023-05-29T12:03:42;99308.09;;;17.86;49.98
50226;BME280;36113;50.742;6.432;2023-05-29T12:06:10;99405.34;;;18.45;51.36
50226;BME280;36113;50.742;6.432;2023-05-29T12:08:36;99361.03;;;18.19;50.35
50226;BME280;36113;50.742;6.432;2023-05-29T12:11:02;99373.81;;;18.51;50.18
50226;BME280;36113;50.742;6.432;2023-05-29T12:13:28;99401.16;;;19.29;48.92
50226;BME280;36113;50.742;6.432;2023-05-29T12:15:56;99358.66;;;18.40;50.09
50226;BME280;36113;50.742;6.432;2023-05-29T12:18:23;99367.41;;;18.78;49.73
50226;BME280;36113;50.742;6.432;2023-05-29T12:20:48;99408.75;;;19.55;47.58
50226;BME280;36113;50.742;6.432;2023-05-29T12:23:14;99399.56;;;19.59;47.90
50226;BME280;36113;50.742;6.432;2023-05-29T12:25:39;99408.47;;;19.96;46.88
50226;BME280;36113;50.742;6.432;2023-05-29T12:28:05;99394.03;;;19.91;47.08
50226;BME280;36113;50.742;6.432;2023-05-29T12:30:30;99401.47;;;19.59;46.68
50226;BME280;36113;50.742;6.432;2023-05-29T12:32:56;99411.13;;;18.94;48.44
50226;BME280;36113;50.742;6.432;2023-05-29T12:35:23;99391.06;;;18.79;48.63
50226;BME280;36113;50.742;6.432;2023-05-29T12:38:04;99401.94;;;18.98;49.85
50226;BME280;36113;50.742;6.432;2023-05-29T12:40:34;99397.78;;;19.10;49.28
50226;BME280;36113;50.742;6.432;2023-05-29T12:43:01;99353.59;;;19.23;49.03
50226;BME280;36113;50.742;6.432;2023-05-29T12:45:31;99396.88;;;19.46;47.30
50226;BME280;36113;50.742;6.432;2023-05-29T12:48:00;99342.34;;;18.80;48.61
50226;BME280;36113;50.742;6.432;2023-05-29T12:50:48;99393.59;;;19.43;47.19
50226;BME280;36113;50.742;6.432;2023-05-29T12:53:15;99407.41;;;19.43;47.49
50226;BME280;36113;50.742;6.432;2023-05-29T12:55:42;99368.88;;;19.30;47.85
50226;BME280;36113;50.742;6.432;2023-05-29T12:58:09;99356.50;;;19.50;46.69
50226;BME280;36113;50.742;6.432;2023-05-29T13:00:36;99360.72;;;19.78;46.48
50226;BME280;36113;50.742;6.432;2023-05-29T13:03:02;99365.63;;;19.59;46.52
50226;BME280;36113;50.742;6.432;2023-05-29T13:05:28;99311.09;;;19.47;46.00
50226;BME280;36113;50.742;6.432;2023-05-29T13:07:54;99404.13;;;19.64;46.11
50226;BME280;36113;50.742;6.432;2023-05-29T13:10:20;99393.91;;;19.11;47.32
50226;BME280;36113;50.742;6.432;2023-05-29T13:12:46;99405.81;;;18.61;48.33
50226;BME280;36113;50.742;6.432;2023-05-29T13:15:13;99403.06;;;19.20;48.55
50226;BME280;36113;50.742;6.432;2023-05-29T13:17:39;99390.41;;;19.50;46.69
50226;BME280;36113;50.742;6.432;2023-05-29T13:20:12;99410.34;;;20.27;46.33
50226;BME280;36113;50.742;6.432;2023-05-29T13:22:44;99335.13;;;19.95;45.86